createdAt,value
2022-10-26T00:01:15.250Z,100.00
2022-10-26T00:03:43.527Z,100.00
2022-10-26T00:06:12.980Z,100.00
2022-10-26T00:08:40.230Z,100.00
2022-10-26T00:11:08.071Z,100.00
2022-10-26T00:13:35.783Z,100.00
2022-10-26T00:16:08.661Z,100.00
2022-10-26T00:18:35.702Z,100.00
2022-10-26T00:21:06.860Z,100.00
2022-10-26T00:23:33.963Z,100.00
2022-10-26T00:26:00.791Z,100.00
2022-10-26T00:28:27.603Z,100.00
2022-10-26T00:30:54.483Z,100.00
2022-10-26T00:33:21.380Z,100.00
2022-10-26T00:35:57.334Z,100.00
2022-10-26T00:38:24.083Z,100.00
2022-10-26T00:40:51.071Z,100.00
2022-10-26T00:43:30.215Z,100.00
2022-10-26T00:45:59.675Z,100.00
2022-10-26T00:48:30.335Z,100.00
2022-10-26T00:51:00.865Z,100.00
2022-10-26T00:53:28.501Z,100.00
2022-10-26T00:55:56.421Z,100.00
2022-10-26T00:58:25.022Z,100.00
2022-10-26T01:00:52.972Z,100.00
2022-10-26T01:03:20.792Z,100.00
2022-10-26T01:05:49.583Z,100.00
2022-10-26T01:08:17.304Z,100.00
2022-10-26T01:10:44.475Z,100.00
2022-10-26T01:13:13.506Z,100.00
2022-10-26T01:15:58.868Z,100.00
2022-10-26T01:18:44.954Z,100.00
2022-10-26T01:21:30.061Z,100.00
2022-10-26T01:24:23.471Z,100.00
2022-10-26T01:27:16.181Z,100.00
2022-10-26T01:30:12.130Z,100.00
2022-10-26T01:32:53.771Z,100.00
2022-10-26T01:35:42.674Z,100.00
2022-10-26T01:38:26.148Z,100.00
2022-10-26T01:41:13.969Z,100.00
2022-10-26T01:43:46.315Z,100.00
2022-10-26T01:46:14.744Z,100.00
2022-10-26T01:48:42.626Z,100.00
2022-10-26T01:51:11.281Z,100.00
2022-10-26T01:53:45.705Z,100.00
2022-10-26T01:56:19.358Z,100.00
2022-10-26T01:58:48.936Z,100.00
2022-10-26T02:01:46.140Z,100.00
2022-10-26T02:04:22.452Z,100.00
2022-10-26T02:07:21.564Z,100.00
2022-10-26T02:10:16.015Z,100.00
2022-10-26T02:12:58.373Z,100.00
2022-10-26T02:15:47.388Z,100.00
2022-10-26T02:18:55.141Z,100.00
2022-10-26T02:21:27.924Z,100.00
2022-10-26T02:23:58.432Z,100.00
2022-10-26T02:26:29.410Z,100.00
2022-10-26T02:29:00.816Z,100.00
2022-10-26T02:31:29.183Z,100.00
2022-10-26T02:33:58.617Z,100.00
2022-10-26T02:36:29.272Z,100.00
2022-10-26T02:38:57.913Z,100.00
2022-10-26T02:41:26.810Z,100.00
2022-10-26T02:44:11.782Z,100.00
2022-10-26T04:39:21.873Z,100.00
2022-10-26T04:41:48.507Z,100.00
2022-10-26T04:44:15.131Z,100.00
2022-10-26T04:46:41.846Z,100.00
2022-10-26T04:49:08.667Z,100.00
2022-10-26T04:51:35.891Z,100.00
2022-10-26T04:54:03.654Z,100.00
2022-10-26T04:56:30.490Z,100.00
2022-10-26T04:58:57.164Z,100.00
2022-10-26T05:01:23.839Z,100.00
2022-10-26T05:03:51.507Z,100.00
2022-10-26T05:06:18.367Z,100.00
2022-10-26T05:08:45.075Z,100.00
2022-10-26T05:11:11.803Z,100.00
2022-10-26T05:13:38.557Z,100.00
2022-10-26T05:16:05.694Z,100.00
2022-10-26T05:18:32.263Z,100.00
2022-10-26T05:20:59.074Z,100.00
2022-10-26T05:23:25.662Z,100.00
2022-10-26T05:25:52.282Z,100.00
2022-10-26T05:28:18.982Z,100.00
2022-10-26T05:30:47.050Z,100.00
2022-10-26T05:33:14.678Z,100.00
2022-10-26T05:35:41.475Z,100.00
2022-10-26T05:38:14.506Z,100.00
2022-10-26T05:40:49.153Z,100.00
2022-10-26T05:43:15.950Z,100.00
2022-10-26T05:45:42.555Z,100.00
2022-10-26T05:48:09.228Z,100.00
2022-10-26T05:50:35.883Z,100.00
2022-10-26T05:53:02.558Z,100.00
2022-10-26T05:55:29.634Z,100.00
2022-10-26T05:57:56.674Z,100.00
2022-10-26T06:00:25.793Z,100.00
2022-10-26T06:03:07.220Z,100.00
2022-10-26T06:05:45.557Z,100.00
2022-10-26T06:08:12.495Z,100.00
2022-10-26T06:10:39.701Z,100.00
2022-10-26T06:13:06.610Z,100.00
2022-10-26T06:15:43.376Z,100.00
2022-10-26T06:18:20.638Z,100.00
2022-10-26T06:21:11.446Z,100.00
2022-10-26T06:24:22.518Z,100.00
2022-10-26T06:27:15.719Z,100.00
2022-10-26T06:29:56.114Z,100.00
2022-10-26T06:32:24.962Z,100.00
2022-10-26T06:34:58.630Z,100.00
2022-10-26T06:37:26.146Z,100.00
2022-10-26T06:39:54.808Z,100.00
2022-10-26T06:42:22.090Z,100.00
2022-10-26T06:44:49.277Z,100.00
2022-10-26T06:47:23.602Z,100.00
2022-10-26T06:50:11.857Z,100.00
2022-10-26T06:52:52.303Z,100.00
2022-10-26T06:55:19.353Z,100.00
2022-10-26T06:57:46.371Z,100.00
2022-10-26T07:00:23.687Z,100.00
2022-10-26T07:02:50.820Z,100.00
2022-10-26T07:05:18.111Z,100.00
2022-10-26T07:07:48.459Z,100.00
2022-10-26T07:10:15.939Z,100.00
2022-10-26T07:12:42.542Z,100.00
2022-10-26T07:17:46.840Z,100.00
2022-10-26T07:20:14.704Z,100.00
2022-10-26T07:22:42.803Z,100.00
2022-10-26T07:25:10.053Z,100.00
2022-10-26T07:27:36.610Z,100.00
2022-10-26T07:30:03.780Z,100.00
2022-10-26T07:32:30.582Z,100.00
2022-10-26T07:34:57.263Z,100.00
2022-10-26T07:37:24.048Z,99.89
2022-10-26T07:39:50.597Z,98.43
2022-10-26T07:42:17.219Z,98.71
2022-10-26T07:44:43.770Z,98.68
2022-10-26T07:47:10.384Z,94.66
2022-10-26T07:49:37.017Z,94.26
2022-10-26T07:52:03.737Z,93.35
2022-10-26T07:54:30.339Z,93.42
2022-10-26T07:56:56.918Z,88.56
2022-10-26T07:59:23.741Z,88.05
2022-10-26T08:01:50.413Z,90.51
2022-10-26T08:04:17.206Z,89.39
2022-10-26T08:06:43.888Z,91.21
2022-10-26T08:09:10.646Z,90.35
2022-10-26T08:11:37.283Z,87.38
2022-10-26T08:14:04.422Z,85.93
2022-10-26T08:16:31.469Z,86.23
2022-10-26T08:18:58.174Z,82.12
2022-10-26T08:21:36.143Z,79.16
2022-10-26T08:24:06.703Z,78.64
2022-10-26T08:26:33.369Z,74.96
2022-10-26T08:29:00.005Z,73.06
2022-10-26T08:31:26.688Z,69.94
2022-10-26T08:33:53.290Z,67.88
2022-10-26T08:36:27.913Z,66.00
2022-10-26T08:38:54.469Z,64.55
2022-10-26T08:41:33.377Z,63.96
2022-10-26T08:44:07.965Z,62.81
2022-10-26T08:46:41.419Z,61.30
2022-10-26T08:49:40.312Z,61.33
2022-10-26T08:52:13.072Z,61.16
2022-10-26T08:54:49.018Z,58.50
2022-10-26T08:57:22.427Z,57.31
2022-10-26T09:00:03.050Z,56.55
2022-10-26T09:02:29.887Z,57.25
2022-10-26T09:04:59.268Z,57.85
2022-10-26T09:07:47.322Z,56.05
2022-10-26T09:10:36.801Z,55.16
2022-10-26T09:13:32.530Z,55.03
2022-10-26T09:16:08.039Z,54.99
2022-10-26T09:18:59.015Z,53.51
2022-10-26T09:21:51.406Z,52.68
2022-10-26T09:24:34.420Z,53.39
2022-10-26T09:27:01.090Z,52.78
2022-10-26T09:29:37.132Z,51.34
2022-10-26T09:32:06.484Z,51.20
2022-10-26T09:34:39.655Z,50.77
2022-10-26T09:37:18.503Z,50.99
2022-10-26T09:40:15.836Z,49.12
2022-10-26T09:42:58.338Z,48.79
2022-10-26T09:45:30.062Z,47.51
2022-10-26T09:48:05.177Z,47.44
2022-10-26T09:50:39.304Z,47.50
2022-10-26T09:53:06.159Z,45.86
2022-10-26T09:55:34.813Z,46.91
2022-10-26T09:58:06.468Z,47.81
2022-10-26T10:03:02.495Z,48.00
2022-10-26T10:05:52.681Z,46.97
2022-10-26T10:08:25.178Z,47.33
2022-10-26T10:11:08.228Z,46.55
2022-10-26T10:13:40.841Z,46.71
2022-10-26T10:16:20.748Z,46.31
2022-10-26T10:18:55.977Z,45.84
2022-10-26T10:21:37.070Z,45.26
2022-10-26T10:24:25.468Z,45.07
2022-10-26T10:26:58.163Z,45.17
2022-10-26T10:29:33.391Z,45.04
2022-10-26T10:32:02.814Z,44.65
2022-10-26T10:34:33.770Z,44.45
2022-10-26T10:37:01.605Z,44.50
2022-10-26T10:39:37.411Z,44.88
2022-10-26T10:42:06.588Z,43.26
2022-10-26T10:44:34.456Z,42.55
2022-10-26T10:47:06.208Z,42.30
2022-10-26T10:49:33.907Z,43.05
2022-10-26T10:52:00.761Z,42.56
2022-10-26T10:54:29.339Z,42.85
2022-10-26T10:57:18.681Z,41.88
2022-10-26T10:59:58.613Z,42.22
2022-10-26T11:02:40.334Z,41.10
2022-10-26T11:05:24.716Z,41.05
2022-10-26T11:08:02.951Z,41.38
2022-10-26T11:10:36.893Z,40.07
2022-10-26T11:13:12.898Z,39.71
2022-10-26T11:15:42.479Z,38.71
2022-10-26T11:18:17.307Z,39.87
2022-10-26T11:20:51.534Z,39.16
2022-10-26T11:23:30.601Z,38.91
2022-10-26T11:26:14.050Z,37.87
2022-10-26T11:29:01.786Z,37.49
2022-10-26T11:31:34.902Z,37.51
2022-10-26T11:34:01.462Z,37.51
2022-10-26T11:36:31.732Z,37.28
2022-10-26T11:39:06.473Z,37.04
2022-10-26T11:41:40.195Z,37.02
2022-10-26T11:44:32.100Z,37.52
2022-10-26T11:47:08.542Z,36.41
2022-10-26T11:50:06.568Z,36.39
2022-10-26T11:52:40.687Z,36.67
2022-10-26T11:55:10.343Z,35.04
2022-10-26T11:57:37.754Z,34.93
2022-10-26T12:00:07.902Z,34.10
2022-10-26T12:05:33.660Z,33.52
2022-10-26T12:08:06.098Z,34.07
2022-10-26T12:10:37.718Z,34.21
2022-10-26T12:13:37.680Z,34.79
2022-10-26T12:16:18.022Z,35.15
2022-10-26T12:19:05.156Z,34.88
2022-10-26T12:21:33.625Z,34.40
2022-10-26T12:24:21.887Z,35.02
2022-10-26T12:26:52.443Z,34.94
2022-10-26T12:29:32.726Z,34.89
2022-10-26T12:31:59.660Z,35.17
2022-10-26T12:34:32.157Z,34.45
2022-10-26T12:36:58.695Z,33.77
2022-10-26T12:39:38.397Z,33.94
2022-10-26T12:42:04.893Z,34.38
2022-10-26T12:44:45.711Z,34.16
2022-10-26T12:47:30.754Z,34.42
2022-10-26T12:50:00.473Z,34.77
2022-10-26T12:52:31.848Z,32.75
2022-10-26T12:55:13.499Z,33.23
2022-10-26T12:58:01.673Z,33.33
2022-10-26T13:00:28.949Z,32.60
2022-10-26T13:03:04.622Z,32.00
2022-10-26T13:05:52.936Z,32.40
2022-10-26T13:08:19.990Z,31.28
2022-10-26T13:11:03.764Z,31.26
2022-10-26T13:13:32.606Z,31.52
2022-10-26T13:16:01.436Z,30.15
2022-10-26T13:18:29.210Z,30.39
2022-10-26T13:21:13.636Z,30.73
2022-10-26T13:23:43.371Z,30.58
2022-10-26T13:26:13.543Z,30.70
2022-10-26T13:28:40.048Z,30.73
2022-10-26T13:31:28.542Z,29.95
2022-10-26T13:34:17.333Z,30.25
2022-10-26T13:37:05.641Z,30.17
2022-10-26T13:39:39.617Z,30.54
2022-10-26T13:42:08.381Z,30.65
2022-10-26T13:44:59.396Z,30.09
2022-10-26T13:47:28.897Z,30.51
2022-10-26T13:50:04.026Z,30.94
2022-10-26T13:52:38.662Z,31.25
2022-10-26T13:55:16.776Z,31.71
2022-10-26T13:57:50.185Z,32.00
2022-10-26T14:00:21.963Z,32.17
2022-10-26T14:02:49.293Z,32.85
2022-10-26T14:05:18.447Z,33.61
2022-10-26T14:07:52.624Z,32.84
2022-10-26T14:10:27.058Z,32.37
2022-10-26T14:12:53.941Z,32.78
2022-10-26T14:15:25.883Z,32.80
2022-10-26T14:17:53.987Z,33.34
2022-10-26T14:20:22.857Z,33.53
2022-10-26T14:22:49.555Z,32.98
2022-10-26T14:25:35.916Z,33.26
2022-10-26T14:28:26.547Z,32.95
2022-10-26T14:30:53.303Z,32.91
2022-10-26T14:33:26.311Z,33.17
2022-10-26T14:35:54.152Z,32.69
2022-10-26T14:38:30.141Z,33.04
2022-10-26T14:40:58.054Z,33.09
2022-10-26T14:43:25.827Z,32.88
2022-10-26T14:45:54.236Z,31.95
2022-10-26T14:48:25.490Z,31.44
2022-10-26T14:51:15.369Z,32.17
2022-10-26T14:53:49.150Z,32.42
2022-10-26T14:56:21.647Z,32.67
2022-10-26T14:58:48.833Z,33.03
2022-10-26T15:01:22.644Z,32.71
2022-10-26T15:03:56.674Z,32.69
2022-10-26T15:06:29.583Z,33.10
2022-10-26T15:08:58.237Z,33.38
2022-10-26T15:11:26.474Z,33.71
2022-10-26T15:13:54.433Z,34.32
2022-10-26T15:16:23.645Z,34.96
2022-10-26T15:18:54.832Z,35.12
2022-10-26T15:21:27.826Z,35.74
2022-10-26T15:23:56.674Z,35.85
2022-10-26T15:26:25.066Z,36.46
2022-10-26T15:28:53.471Z,36.93
2022-10-26T15:31:20.044Z,37.68
2022-10-26T15:33:49.436Z,38.61
2022-10-26T15:36:18.665Z,38.86
2022-10-26T15:38:46.752Z,39.83
2022-10-26T15:41:26.486Z,39.88
2022-10-26T15:43:58.971Z,40.01
2022-10-26T15:46:30.088Z,40.63
2022-10-26T15:49:05.813Z,40.37
2022-10-26T15:51:32.762Z,40.47
2022-10-26T15:54:02.264Z,40.37
2022-10-26T15:56:29.094Z,39.93
2022-10-26T15:58:57.476Z,40.20
2022-10-26T16:01:30.539Z,39.90
2022-10-26T16:03:57.144Z,40.07
2022-10-26T16:06:27.493Z,39.88
2022-10-26T16:08:57.099Z,40.27
2022-10-26T16:11:23.810Z,40.29
2022-10-26T16:16:22.359Z,40.51
2022-10-26T16:19:06.050Z,40.58
2022-10-26T16:21:38.712Z,40.59
2022-10-26T16:24:05.597Z,40.95
2022-10-26T16:26:32.116Z,41.42
2022-10-26T16:28:58.671Z,41.14
2022-10-26T16:31:25.332Z,41.20
2022-10-26T16:33:52.008Z,41.50
2022-10-26T16:36:18.583Z,41.78
2022-10-26T16:38:45.245Z,41.94
2022-10-26T16:41:14.105Z,42.56
2022-10-26T16:43:42.854Z,42.41
2022-10-26T16:46:12.882Z,42.49
2022-10-26T16:48:41.079Z,42.79
2022-10-26T16:51:22.816Z,42.90
2022-10-26T16:53:51.793Z,43.54
2022-10-26T16:56:22.087Z,44.47
2022-10-26T16:58:49.154Z,44.42
2022-10-26T17:01:20.689Z,44.81
2022-10-26T17:03:49.421Z,45.06
2022-10-26T17:06:17.333Z,46.33
2022-10-26T17:08:44.470Z,46.16
2022-10-26T17:11:17.153Z,46.09
2022-10-26T17:13:44.478Z,46.36
2022-10-26T17:16:14.248Z,46.33
2022-10-26T17:18:41.947Z,46.65
2022-10-26T17:21:09.863Z,46.97
2022-10-26T17:23:36.447Z,47.42
2022-10-26T17:26:05.271Z,47.60
2022-10-26T17:28:32.613Z,48.07
2022-10-26T17:31:04.266Z,48.20
2022-10-26T17:33:33.169Z,48.62
2022-10-26T17:35:59.870Z,48.75
2022-10-26T17:38:26.540Z,49.05
2022-10-26T17:40:53.352Z,49.38
2022-10-26T17:43:19.980Z,49.95
2022-10-26T17:45:46.613Z,50.14
2022-10-26T17:48:13.271Z,50.01
2022-10-26T17:50:39.880Z,50.19
2022-10-26T17:53:07.615Z,50.28
2022-10-26T17:55:34.390Z,49.88
2022-10-26T17:58:01.159Z,49.90
2022-10-26T18:00:27.951Z,49.46
2022-10-26T18:02:54.924Z,49.60
2022-10-26T18:05:21.783Z,49.42
2022-10-26T18:07:48.817Z,49.09
2022-10-26T18:10:38.011Z,49.18
2022-10-26T18:13:02.666Z,49.25
2022-10-26T18:15:29.405Z,49.34
2022-10-26T18:17:59.830Z,49.36
2022-10-26T18:20:27.409Z,49.20
2022-10-26T18:22:54.109Z,49.90
2022-10-26T18:25:20.832Z,49.82
2022-10-26T18:27:47.727Z,49.38
2022-10-26T18:30:14.497Z,49.53
2022-10-26T18:32:41.401Z,49.72
2022-10-26T18:35:08.455Z,49.61
2022-10-26T18:37:35.245Z,49.75
2022-10-26T18:40:01.992Z,50.02
2022-10-26T18:42:28.652Z,50.85
2022-10-26T18:45:00.734Z,50.57
2022-10-26T18:47:28.944Z,50.79
2022-10-26T18:49:56.090Z,51.44
2022-10-26T18:52:28.104Z,51.59
2022-10-26T18:54:55.087Z,52.03
2022-10-26T18:57:27.167Z,52.37
2022-10-26T18:59:54.960Z,52.66
2022-10-26T19:02:23.158Z,53.05
2022-10-26T19:04:51.730Z,53.32
2022-10-26T19:07:18.431Z,53.41
2022-10-26T19:09:45.175Z,53.98
2022-10-26T19:12:11.934Z,54.11
2022-10-26T19:14:38.693Z,54.34
2022-10-26T19:17:05.646Z,54.34
2022-10-26T19:19:32.488Z,54.72
2022-10-26T19:22:00.477Z,54.77
2022-10-26T19:24:27.222Z,56.07
2022-10-26T19:26:54.328Z,56.43
2022-10-26T19:29:21.683Z,56.56
2022-10-26T19:31:52.003Z,57.09
2022-10-26T19:34:18.889Z,56.91
2022-10-26T19:36:47.279Z,56.92
2022-10-26T19:39:17.708Z,57.86
2022-10-26T19:41:46.067Z,57.54
2022-10-26T19:44:14.705Z,57.63
2022-10-26T19:46:43.554Z,57.49
2022-10-26T19:49:10.683Z,58.20
2022-10-26T19:51:37.310Z,58.74
2022-10-26T19:54:06.396Z,61.62
2022-10-26T19:56:34.188Z,61.42
2022-10-26T19:59:01.673Z,61.42
2022-10-26T20:01:28.669Z,65.09
2022-10-26T20:03:55.425Z,62.81
2022-10-26T20:06:22.027Z,64.33
2022-10-26T20:08:49.272Z,65.98
2022-10-26T20:11:17.245Z,66.73
2022-10-26T20:13:46.206Z,67.89
2022-10-26T20:16:13.750Z,69.34
2022-10-26T20:18:44.075Z,70.44
2022-10-26T20:21:14.768Z,71.78
2022-10-26T20:23:42.575Z,72.46
2022-10-26T20:26:11.701Z,74.13
2022-10-26T20:28:44.579Z,74.72
2022-10-26T20:31:11.218Z,75.12
2022-10-26T20:33:37.914Z,76.54
2022-10-26T20:36:04.632Z,76.54
2022-10-26T20:38:31.704Z,78.15
2022-10-26T20:40:59.406Z,78.33
2022-10-26T20:43:27.903Z,79.34
2022-10-26T20:45:56.209Z,80.41
2022-10-26T20:48:23.097Z,81.24
2022-10-26T20:54:00.720Z,82.55
2022-10-26T20:56:27.859Z,83.70
2022-10-26T20:58:57.174Z,84.29
2022-10-26T21:01:34.876Z,85.09
2022-10-26T21:04:03.581Z,84.90
2022-10-26T21:06:39.876Z,85.37
2022-10-26T21:09:07.492Z,85.84
2022-10-26T21:11:34.154Z,86.13
2022-10-26T21:14:03.309Z,86.92
2022-10-26T21:16:29.984Z,86.37
2022-10-26T21:18:56.558Z,85.66
2022-10-26T21:21:23.155Z,86.00
2022-10-26T21:23:49.792Z,86.70
2022-10-26T21:26:16.348Z,87.14
2022-10-26T21:28:47.797Z,89.25
2022-10-26T21:31:18.715Z,89.03
2022-10-26T21:33:46.695Z,88.09
2022-10-26T21:36:14.162Z,88.68
2022-10-26T21:38:42.533Z,87.91
2022-10-26T21:41:17.460Z,93.59
2022-10-26T21:43:46.334Z,94.03
2022-10-26T21:46:13.628Z,90.79
2022-10-26T21:48:41.164Z,90.09
2022-10-26T21:51:12.108Z,89.76
2022-10-26T21:53:39.001Z,89.19
2022-10-26T21:56:07.897Z,88.98
2022-10-26T21:58:34.548Z,89.92
2022-10-26T22:01:21.970Z,89.36
2022-10-26T22:03:49.752Z,92.41
2022-10-26T22:08:46.941Z,97.28
2022-10-26T22:11:17.191Z,92.08
2022-10-26T22:13:44.776Z,91.52
2022-10-26T22:16:15.592Z,91.23
2022-10-26T22:18:44.991Z,91.93
2022-10-26T22:21:13.275Z,93.02
2022-10-26T22:23:41.690Z,96.24
2022-10-26T22:26:22.603Z,96.65
2022-10-26T22:28:54.707Z,97.23
2022-10-26T22:31:24.216Z,98.51
2022-10-26T22:33:52.907Z,98.95
2022-10-26T22:36:19.544Z,100.00
2022-10-26T22:38:46.252Z,100.00
2022-10-26T22:41:14.262Z,100.00
2022-10-26T22:43:40.858Z,100.00
2022-10-26T22:46:12.400Z,100.00
2022-10-26T22:48:39.435Z,100.00
2022-10-26T22:51:10.602Z,100.00
2022-10-26T22:53:37.328Z,100.00
2022-10-26T22:56:05.744Z,100.00
2022-10-26T22:58:32.578Z,100.00
2022-10-26T23:01:11.544Z,100.00
2022-10-26T23:03:38.757Z,100.00
2022-10-26T23:06:14.863Z,100.00
2022-10-26T23:08:41.875Z,100.00
2022-10-26T23:11:11.877Z,100.00
2022-10-26T23:13:38.669Z,100.00
2022-10-26T23:16:16.469Z,100.00
2022-10-26T23:18:43.105Z,100.00
2022-10-26T23:21:11.870Z,100.00
2022-10-26T23:23:38.631Z,100.00
2022-10-26T23:26:12.091Z,100.00
2022-10-26T23:28:39.535Z,100.00
2022-10-26T23:31:06.925Z,100.00
2022-10-26T23:33:33.546Z,100.00
2022-10-26T23:36:01.302Z,100.00
2022-10-26T23:38:27.950Z,100.00
2022-10-26T23:40:56.738Z,100.00
2022-10-26T23:43:24.097Z,100.00
2022-10-26T23:45:51.225Z,100.00
2022-10-26T23:48:19.269Z,100.00
2022-10-26T23:50:47.869Z,100.00
2022-10-26T23:53:16.102Z,100.00
2022-10-26T23:55:46.633Z,100.00
2022-10-26T23:58:13.846Z,100.00
